Time;durP1;ratioP1;P1;durP2;ratioP2;P2;SDS_P1;SDS_P2;PMS_P1;PMS_P2;Temp;Humidity;BMP_temperature;BMP_pressure;BME280_temperature;BME280_humidity;BME280_pressure;Samples;Min_cycle;Max_cycle;Signal;HPM_P1;HPM_P2
2023/04/15 00:01:27;;;;;;;;;;;9.50;90.90;;;;;;5108330;28;19943;-66
2023/04/15 00:03:54;;;;;;;;;;;9.50;90.90;;;;;;5108182;28;19912;-66
2023/04/15 00:06:20;;;;;;;;;;;9.50;90.90;;;;;;5108040;28;19953;-66
2023/04/15 00:08:46;;;;;;;;;;;9.50;91.00;;;;;;5108249;28;19911;-67
2023/04/15 00:11:12;;;;;;;;;;;9.40;90.90;;;;;;5108135;28;20306;-67
2023/04/15 00:13:38;;;;;;;;;;;9.40;90.90;;;;;;5108096;28;20026;-66
2023/04/15 00:16:05;;;;;;;;;;;9.40;90.90;;;;;;5108352;28;19911;-66
2023/04/15 00:18:30;;;;;;;;;;;9.40;91.00;;;;;;5101811;28;19923;-66
2023/04/15 00:20:56;;;;;;;;;;;9.40;90.90;;;;;;5108013;28;19912;-66
2023/04/15 00:23:22;;;;;;;;;;;9.30;91.00;;;;;;5107292;28;19919;-67
2023/04/15 00:25:47;;;;;;;;;;;9.30;91.00;;;;;;5108186;28;20510;-67
2023/04/15 00:28:13;;;;;;;;;;;9.30;91.00;;;;;;5107728;28;19918;-66
2023/04/15 00:30:38;;;;;;;;;;;9.30;91.00;;;;;;5108196;28;19918;-66
2023/04/15 00:33:04;;;;;;;;;;;9.30;91.00;;;;;;5107648;28;20361;-66
2023/04/15 00:35:31;;;;;;;;;;;9.20;91.00;;;;;;5107717;28;19919;-66
2023/04/15 00:37:57;;;;;;;;;;;9.20;91.00;;;;;;5107701;28;19923;-66
2023/04/15 00:40:23;;;;;;;;;;;9.20;91.10;;;;;;5107656;28;19911;-66
2023/04/15 00:42:49;;;;;;;;;;;9.20;91.00;;;;;;5107465;28;19965;-66
2023/04/15 00:45:15;;;;;;;;;;;9.20;91.10;;;;;;5107724;28;19912;-66
2023/04/15 00:47:41;;;;;;;;;;;9.10;91.00;;;;;;5107700;28;19916;-66
2023/04/15 00:50:07;;;;;;;;;;;9.10;91.00;;;;;;5107932;28;19990;-66
2023/04/15 00:52:33;;;;;;;;;;;9.10;91.00;;;;;;5107466;28;20100;-66
2023/04/15 00:54:59;;;;;;;;;;;9.10;91.10;;;;;;5106615;28;19919;-66
2023/04/15 00:57:25;;;;;;;;;;;9.10;91.00;;;;;;5107783;28;19916;-66
2023/04/15 00:59:51;;;;;;;;;;;9.10;91.00;;;;;;5107936;28;19912;-66
2023/04/15 01:02:17;;;;;;;;;;;9.10;91.10;;;;;;5107348;28;19911;-66
2023/04/15 01:04:42;;;;;;;;;;;9.00;91.00;;;;;;5105885;28;20011;-66
2023/04/15 01:07:08;;;;;;;;;;;9.00;91.00;;;;;;5088118;28;19912;-66
2023/04/15 01:09:33;;;;;;;;;;;9.00;91.10;;;;;;5107008;28;20388;-66
2023/04/15 01:11:59;;;;;;;;;;;9.00;91.00;;;;;;5106121;28;19923;-66
2023/04/15 01:14:24;;;;;;;;;;;9.00;91.00;;;;;;5107509;28;20257;-66
2023/04/15 01:16:51;;;;;;;;;;;8.90;91.00;;;;;;5108355;28;19919;-66
2023/04/15 01:19:17;;;;;;;;;;;8.90;91.00;;;;;;5110778;28;19926;-67
2023/04/15 01:21:42;;;;;;;;;;;8.90;91.10;;;;;;5111436;28;19912;-66
2023/04/15 01:24:09;;;;;;;;;;;8.90;91.10;;;;;;5110975;28;19918;-66
2023/04/15 01:26:36;;;;;;;;;;;8.90;91.10;;;;;;5111352;28;19918;-66
2023/04/15 01:29:02;;;;;;;;;;;8.90;91.10;;;;;;5109899;28;19939;-66
2023/04/15 01:31:27;;;;;;;;;;;8.90;91.10;;;;;;5111252;28;20436;-66
2023/04/15 01:33:53;;;;;;;;;;;8.90;91.20;;;;;;5110909;28;19912;-66
2023/04/15 01:36:18;;;;;;;;;;;8.80;91.20;;;;;;5111163;28;20265;-66
2023/04/15 01:38:44;;;;;;;;;;;8.80;91.40;;;;;;5109881;28;19963;-66
2023/04/15 01:41:10;;;;;;;;;;;8.80;91.10;;;;;;5111000;28;19912;-66
2023/04/15 01:43:38;;;;;;;;;;;8.80;91.10;;;;;;5110940;28;19994;-66
2023/04/15 01:46:04;;;;;;;;;;;8.80;91.20;;;;;;5110865;28;19912;-66
2023/04/15 01:48:29;;;;;;;;;;;8.80;91.10;;;;;;5109581;28;19911;-66
2023/04/15 01:50:57;;;;;;;;;;;8.80;91.20;;;;;;5111261;28;19965;-66
2023/04/15 01:53:24;;;;;;;;;;;8.80;91.20;;;;;;5110689;27;19968;-66
2023/04/15 01:55:50;;;;;;;;;;;8.80;91.50;;;;;;5110898;28;19977;-66
2023/04/15 01:58:16;;;;;;;;;;;8.70;91.20;;;;;;5110440;28;19915;-66
2023/04/15 02:00:41;;;;;;;;;;;8.70;91.20;;;;;;5110905;28;19964;-66
2023/04/15 02:03:07;;;;;;;;;;;8.70;91.20;;;;;;5110212;28;20352;-66
2023/04/15 02:05:32;;;;;;;;;;;8.70;91.20;;;;;;5110733;28;19922;-66
2023/04/15 02:07:58;;;;;;;;;;;8.70;91.20;;;;;;5108661;28;19969;-67
2023/04/15 02:10:23;;;;;;;;;;;8.70;91.20;;;;;;5102102;28;20008;-66
2023/04/15 02:12:49;;;;;;;;;;;8.60;91.20;;;;;;5089800;28;19943;-66
2023/04/15 02:15:15;;;;;;;;;;;8.60;91.20;;;;;;5090057;28;19912;-66
2023/04/15 02:17:44;;;;;;;;;;;8.60;91.30;;;;;;5098405;28;20024;-66
2023/04/15 02:20:10;;;;;;;;;;;8.60;91.30;;;;;;5109629;28;19923;-66
2023/04/15 02:22:36;;;;;;;;;;;8.60;91.20;;;;;;5109508;28;19936;-66
2023/04/15 02:25:01;;;;;;;;;;;8.50;91.30;;;;;;5109835;28;20267;-66
2023/04/15 02:27:27;;;;;;;;;;;8.50;91.30;;;;;;5109181;28;19918;-66
2023/04/15 02:29:53;;;;;;;;;;;8.50;91.30;;;;;;5109512;28;19919;-66
2023/04/15 02:32:19;;;;;;;;;;;8.50;91.30;;;;;;5109509;28;19911;-66
2023/04/15 02:34:44;;;;;;;;;;;8.50;91.30;;;;;;5109757;28;19937;-66
2023/04/15 02:37:11;;;;;;;;;;;8.50;91.30;;;;;;5109530;28;19923;-66
2023/04/15 02:39:36;;;;;;;;;;;8.50;91.30;;;;;;5108549;28;19912;-66
2023/04/15 02:42:03;;;;;;;;;;;8.40;91.30;;;;;;5102913;28;19908;-66
2023/04/15 02:44:30;;;;;;;;;;;8.40;91.30;;;;;;5109895;28;19911;-66
2023/04/15 02:46:55;;;;;;;;;;;8.40;91.30;;;;;;5109565;28;20482;-66
2023/04/15 02:49:21;;;;;;;;;;;8.40;91.30;;;;;;5109792;28;19923;-66
2023/04/15 02:51:48;;;;;;;;;;;8.40;91.30;;;;;;5108198;28;19918;-66
2023/04/15 02:54:17;;;;;;;;;;;8.40;91.30;;;;;;5109624;28;19912;-66
2023/04/15 02:56:43;;;;;;;;;;;8.30;91.30;;;;;;5109571;28;20287;-66
2023/04/15 02:59:08;;;;;;;;;;;8.30;91.30;;;;;;5109557;28;19908;-66
2023/04/15 03:01:34;;;;;;;;;;;8.30;91.30;;;;;;5098929;28;19919;-66
2023/04/15 03:03:59;;;;;;;;;;;8.30;91.30;;;;;;5088753;28;19920;-66
2023/04/15 03:06:25;;;;;;;;;;;8.30;91.30;;;;;;5089223;28;19912;-66
2023/04/15 03:08:50;;;;;;;;;;;8.30;91.30;;;;;;5103642;28;20068;-66
2023/04/15 03:11:17;;;;;;;;;;;8.30;91.30;;;;;;5109414;28;20049;-66
2023/04/15 03:13:43;;;;;;;;;;;8.20;91.30;;;;;;5109150;28;19942;-66
2023/04/15 03:16:08;;;;;;;;;;;8.20;91.30;;;;;;5109194;28;19908;-66
2023/04/15 03:18:34;;;;;;;;;;;8.20;91.30;;;;;;5102805;28;19918;-66
2023/04/15 03:20:59;;;;;;;;;;;8.20;91.30;;;;;;5109170;27;19915;-66
2023/04/15 03:23:25;;;;;;;;;;;8.20;91.30;;;;;;5093074;28;19915;-66
2023/04/15 03:25:50;;;;;;;;;;;8.20;91.30;;;;;;5106494;28;19973;-66
2023/04/15 03:28:16;;;;;;;;;;;8.10;91.60;;;;;;5107464;28;20281;-66
2023/04/15 03:30:41;;;;;;;;;;;8.10;91.30;;;;;;5108644;28;19943;-66
2023/04/15 03:33:07;;;;;;;;;;;8.10;91.30;;;;;;5108511;28;19912;-66
2023/04/15 03:35:33;;;;;;;;;;;8.10;91.30;;;;;;5108635;28;19919;-66
2023/04/15 03:37:59;;;;;;;;;;;8.10;91.30;;;;;;5108168;28;20854;-66
2023/04/15 03:40:24;;;;;;;;;;;8.10;91.30;;;;;;5107457;28;19916;-66
2023/04/15 03:42:50;;;;;;;;;;;8.00;91.30;;;;;;5091429;28;20019;-66
2023/04/15 03:45:15;;;;;;;;;;;8.00;91.30;;;;;;5086813;28;19912;-66
2023/04/15 03:47:41;;;;;;;;;;;8.00;91.30;;;;;;5087297;28;19912;-66
2023/04/15 03:50:07;;;;;;;;;;;8.00;91.30;;;;;;5088211;28;20019;-66
2023/04/15 03:52:32;;;;;;;;;;;8.00;91.30;;;;;;5087630;28;19932;-66
2023/04/15 03:54:58;;;;;;;;;;;8.00;91.30;;;;;;5088092;28;20335;-66
2023/04/15 03:57:23;;;;;;;;;;;8.00;91.30;;;;;;5087850;28;20007;-66
2023/04/15 03:59:49;;;;;;;;;;;8.00;91.30;;;;;;5087929;28;20006;-66
2023/04/15 04:02:14;;;;;;;;;;;7.90;91.30;;;;;;5087768;28;19912;-66
2023/04/15 04:04:40;;;;;;;;;;;7.90;91.30;;;;;;5086296;28;20447;-66
2023/04/15 04:07:05;;;;;;;;;;;7.90;91.30;;;;;;5087875;28;19985;-66
2023/04/15 04:09:31;;;;;;;;;;;7.90;91.30;;;;;;5107969;28;19912;-66
2023/04/15 04:11:56;;;;;;;;;;;7.90;91.30;;;;;;5108048;28;20367;-66
2023/04/15 04:14:28;;;;;;;;;;;7.90;91.30;;;;;;5108282;28;19911;-66
2023/04/15 04:16:53;;;;;;;;;;;7.90;91.30;;;;;;5107646;28;19915;-66
2023/04/15 04:19:19;;;;;;;;;;;7.90;91.30;;;;;;5107340;28;19926;-66
2023/04/15 04:21:44;;;;;;;;;;;7.90;91.30;;;;;;5107706;28;19920;-66
2023/04/15 04:24:10;;;;;;;;;;;7.80;91.30;;;;;;5107856;28;19916;-66
2023/04/15 04:26:36;;;;;;;;;;;7.80;91.30;;;;;;5106549;28;19912;-66
2023/04/15 04:29:01;;;;;;;;;;;7.80;91.30;;;;;;5106678;28;19908;-66
2023/04/15 04:31:27;;;;;;;;;;;7.80;91.30;;;;;;5107676;28;19914;-66
2023/04/15 04:33:52;;;;;;;;;;;7.80;91.30;;;;;;5107463;28;19911;-66
2023/04/15 04:36:18;;;;;;;;;;;7.80;91.30;;;;;;5107454;28;20018;-66
2023/04/15 04:38:43;;;;;;;;;;;7.80;91.30;;;;;;5107539;28;19955;-66
2023/04/15 04:41:09;;;;;;;;;;;7.80;91.30;;;;;;5107656;28;20002;-66
2023/04/15 04:43:34;;;;;;;;;;;7.70;91.30;;;;;;5106358;28;19921;-66
2023/04/15 04:46:00;;;;;;;;;;;7.70;91.40;;;;;;5108177;28;19922;-66
2023/04/15 04:48:26;;;;;;;;;;;7.70;91.40;;;;;;5107702;28;19912;-66
2023/04/15 04:50:51;;;;;;;;;;;7.70;91.30;;;;;;5107255;28;19912;-66
2023/04/15 04:53:17;;;;;;;;;;;7.70;91.40;;;;;;5111340;28;19911;-66
2023/04/15 04:55:43;;;;;;;;;;;7.70;91.30;;;;;;5110439;28;19918;-66
2023/04/15 04:58:08;;;;;;;;;;;7.70;91.40;;;;;;5111066;28;20279;-66
2023/04/15 05:00:34;;;;;;;;;;;7.70;91.40;;;;;;5104785;28;20064;-66
2023/04/15 05:02:59;;;;;;;;;;;7.70;91.40;;;;;;5110837;28;19995;-66
2023/04/15 05:05:25;;;;;;;;;;;7.70;91.40;;;;;;5111648;28;20063;-66
2023/04/15 05:07:51;;;;;;;;;;;7.70;91.40;;;;;;5104871;28;20300;-66
2023/04/15 05:10:17;;;;;;;;;;;7.70;91.40;;;;;;5098460;28;19955;-66
2023/04/15 05:12:42;;;;;;;;;;;7.60;91.40;;;;;;5110979;28;20006;-66
2023/04/15 05:15:08;;;;;;;;;;;7.60;91.40;;;;;;5111407;28;19911;-66
2023/04/15 05:17:34;;;;;;;;;;;7.60;91.40;;;;;;5110220;28;19916;-66
2023/04/15 05:20:00;;;;;;;;;;;7.60;91.40;;;;;;5110420;28;20412;-66
2023/04/15 05:22:25;;;;;;;;;;;7.60;91.40;;;;;;5109646;28;19923;-66
2023/04/15 05:24:51;;;;;;;;;;;7.60;91.30;;;;;;5109696;28;19911;-66
2023/04/15 05:27:17;;;;;;;;;;;7.60;91.40;;;;;;5110737;28;19956;-66
2023/04/15 05:29:43;;;;;;;;;;;7.60;91.30;;;;;;5111406;28;19923;-66
2023/04/15 05:32:10;;;;;;;;;;;7.60;91.40;;;;;;5110300;28;20315;-66
2023/04/15 05:34:36;;;;;;;;;;;7.60;91.30;;;;;;5111136;28;19946;-66
2023/04/15 05:37:02;;;;;;;;;;;7.60;91.30;;;;;;5109597;28;19922;-66
2023/04/15 05:39:27;;;;;;;;;;;7.60;91.30;;;;;;5111279;28;19918;-66
2023/04/15 05:41:53;;;;;;;;;;;7.60;91.30;;;;;;5111013;28;19919;-66
2023/04/15 05:44:18;;;;;;;;;;;7.60;91.30;;;;;;5110964;28;19918;-66
2023/04/15 05:46:44;;;;;;;;;;;7.60;91.30;;;;;;5106183;28;19912;-66
2023/04/15 05:49:10;;;;;;;;;;;7.70;91.30;;;;;;5090793;28;19913;-66
2023/04/15 05:51:35;;;;;;;;;;;7.70;91.40;;;;;;5090426;28;19919;-66
2023/04/15 05:54:01;;;;;;;;;;;7.60;91.30;;;;;;5090290;28;19991;-66
2023/04/15 05:56:26;;;;;;;;;;;7.70;91.30;;;;;;5090495;28;19922;-66
2023/04/15 05:58:52;;;;;;;;;;;7.70;91.30;;;;;;5090670;28;19943;-66
2023/04/15 06:01:17;;;;;;;;;;;7.60;91.30;;;;;;5090640;28;19912;-66
2023/04/15 06:03:43;;;;;;;;;;;7.70;91.30;;;;;;5088234;28;19961;-66
2023/04/15 06:06:09;;;;;;;;;;;7.70;91.30;;;;;;5103550;28;19960;-66
2023/04/15 06:08:34;;;;;;;;;;;7.70;91.30;;;;;;5110630;28;19957;-66
2023/04/15 06:11:00;;;;;;;;;;;7.70;91.30;;;;;;5110239;28;20367;-66
2023/04/15 06:13:26;;;;;;;;;;;7.70;91.30;;;;;;5109872;28;19911;-66
2023/04/15 06:15:52;;;;;;;;;;;7.70;91.30;;;;;;5109578;28;20434;-66
2023/04/15 06:18:18;;;;;;;;;;;7.70;91.40;;;;;;5108950;28;19920;-66
2023/04/15 06:20:44;;;;;;;;;;;7.70;91.40;;;;;;5110616;28;19923;-66
2023/04/15 06:23:10;;;;;;;;;;;7.70;91.30;;;;;;5109797;28;19915;-66
2023/04/15 06:25:35;;;;;;;;;;;7.70;91.30;;;;;;5109908;28;19981;-66
2023/04/15 06:28:01;;;;;;;;;;;7.70;91.30;;;;;;5110249;28;19916;-66
2023/04/15 06:30:26;;;;;;;;;;;7.70;91.30;;;;;;5110061;28;20346;-66
2023/04/15 06:32:52;;;;;;;;;;;7.70;91.30;;;;;;5109878;28;19912;-66
2023/04/15 06:35:17;;;;;;;;;;;7.70;91.30;;;;;;5110501;28;19947;-66
2023/04/15 06:37:43;;;;;;;;;;;7.80;91.40;;;;;;5109898;28;20273;-66
2023/04/15 06:40:09;;;;;;;;;;;7.80;91.40;;;;;;5109864;28;20827;-66
2023/04/15 06:42:35;;;;;;;;;;;7.80;91.30;;;;;;5109226;28;19918;-66
2023/04/15 06:45:01;;;;;;;;;;;7.80;91.40;;;;;;5109716;28;20558;-66
2023/04/15 06:47:26;;;;;;;;;;;7.80;91.30;;;;;;5109455;28;19964;-66
2023/04/15 06:49:52;;;;;;;;;;;7.80;91.40;;;;;;5109586;28;19915;-66
2023/04/15 06:52:18;;;;;;;;;;;7.90;91.40;;;;;;5108999;28;19919;-66
2023/04/15 06:54:43;;;;;;;;;;;7.90;91.40;;;;;;5109194;28;19912;-66
2023/04/15 06:57:09;;;;;;;;;;;7.90;91.40;;;;;;5108917;28;19927;-66
2023/04/15 06:59:34;;;;;;;;;;;7.90;91.40;;;;;;5109863;28;20011;-66
2023/04/15 07:02:00;;;;;;;;;;;7.90;91.40;;;;;;5109444;28;20413;-66
2023/04/15 07:04:26;;;;;;;;;;;7.90;91.40;;;;;;5109626;28;20028;-66
2023/04/15 07:06:52;;;;;;;;;;;7.90;91.50;;;;;;5109740;28;19951;-66
2023/04/15 07:09:18;;;;;;;;;;;7.90;91.40;;;;;;5109266;28;19915;-66
2023/04/15 07:11:44;;;;;;;;;;;8.00;91.50;;;;;;5109285;28;19984;-66
2023/04/15 07:14:09;;;;;;;;;;;8.00;91.50;;;;;;5108601;27;19912;-66
2023/04/15 07:16:35;;;;;;;;;;;8.00;91.50;;;;;;5109109;28;19930;-66
2023/04/15 07:19:01;;;;;;;;;;;8.00;91.50;;;;;;5108360;28;19915;-66
2023/04/15 07:21:26;;;;;;;;;;;8.00;91.40;;;;;;5109099;28;19937;-66
2023/04/15 07:23:52;;;;;;;;;;;8.10;91.50;;;;;;5107326;28;20395;-66
2023/04/15 07:26:17;;;;;;;;;;;8.10;91.40;;;;;;5107813;28;20376;-66
2023/04/15 07:28:45;;;;;;;;;;;8.10;91.40;;;;;;5109308;28;19911;-66
2023/04/15 07:31:10;;;;;;;;;;;8.20;91.40;;;;;;5108751;28;20360;-66
2023/04/15 07:33:36;;;;;;;;;;;8.20;91.40;;;;;;5108666;28;19918;-66
2023/04/15 07:36:01;;;;;;;;;;;8.30;91.40;;;;;;5109017;28;19908;-66
2023/04/15 07:38:27;;;;;;;;;;;8.30;91.40;;;;;;5108893;28;19915;-66
2023/04/15 07:40:53;;;;;;;;;;;8.40;91.40;;;;;;5108953;28;19955;-66
2023/04/15 07:43:20;;;;;;;;;;;8.40;91.40;;;;;;5108707;28;19911;-66
2023/04/15 07:45:45;;;;;;;;;;;8.40;91.40;;;;;;5108783;28;19912;-66
2023/04/15 07:48:11;;;;;;;;;;;8.50;91.40;;;;;;5108406;28;19923;-68
2023/04/15 07:50:36;;;;;;;;;;;8.50;91.30;;;;;;5109016;28;19961;-68
2023/04/15 07:53:02;;;;;;;;;;;8.60;91.30;;;;;;5108043;28;19908;-68
2023/04/15 07:55:29;;;;;;;;;;;8.60;91.30;;;;;;5108835;28;20004;-68
2023/04/15 07:57:55;;;;;;;;;;;8.70;91.50;;;;;;5108560;28;19919;-68
2023/04/15 08:00:21;;;;;;;;;;;8.70;91.20;;;;;;5108908;27;20357;-68
2023/04/15 08:02:47;;;;;;;;;;;8.70;91.20;;;;;;5107675;28;19915;-68
2023/04/15 08:05:13;;;;;;;;;;;8.80;91.20;;;;;;5108735;28;19914;-68
2023/04/15 08:07:39;;;;;;;;;;;8.80;91.10;;;;;;5106503;28;19916;-68
2023/04/15 08:10:05;;;;;;;;;;;8.90;91.20;;;;;;5107092;28;20364;-68
2023/04/15 08:12:30;;;;;;;;;;;8.90;91.10;;;;;;5107861;28;19926;-68
2023/04/15 08:14:56;;;;;;;;;;;9.00;91.20;;;;;;5107942;27;20273;-68
2023/04/15 08:17:22;;;;;;;;;;;9.00;91.20;;;;;;5107233;28;20477;-68
2023/04/15 08:19:47;;;;;;;;;;;9.10;91.20;;;;;;5106951;28;19994;-68
2023/04/15 08:22:13;;;;;;;;;;;9.10;91.10;;;;;;5107105;28;19960;-69
2023/04/15 08:24:38;;;;;;;;;;;9.20;91.20;;;;;;5107713;28;19938;-69
2023/04/15 08:27:04;;;;;;;;;;;9.20;91.10;;;;;;5107537;28;19912;-68
2023/04/15 08:29:30;;;;;;;;;;;9.30;91.20;;;;;;5108097;28;20462;-68
2023/04/15 08:31:56;;;;;;;;;;;9.40;91.00;;;;;;5107267;28;19922;-69
2023/04/15 08:34:22;;;;;;;;;;;9.40;90.90;;;;;;5107509;28;19915;-68
2023/04/15 08:36:48;;;;;;;;;;;9.50;90.90;;;;;;5107433;28;19919;-68
2023/04/15 08:39:13;;;;;;;;;;;9.60;90.90;;;;;;5099923;28;19923;-68
2023/04/15 08:41:45;;;;;;;;;;;9.60;90.90;;;;;;5096214;28;19972;-68
2023/04/15 08:44:11;;;;;;;;;;;9.60;90.90;;;;;;5103532;28;20169;-69
2023/04/15 08:46:38;;;;;;;;;;;9.70;90.90;;;;;;5107199;28;19943;-69
2023/04/15 08:49:04;;;;;;;;;;;9.70;90.90;;;;;;5107683;28;19916;-69
2023/04/15 08:51:29;;;;;;;;;;;9.80;90.90;;;;;;5107688;28;20311;-69
2023/04/15 08:53:55;;;;;;;;;;;9.80;90.90;;;;;;5107654;28;19911;-69
2023/04/15 08:56:24;;;;;;;;;;;9.90;91.20;;;;;;5107658;28;19916;-69
2023/04/15 08:58:51;;;;;;;;;;;9.90;90.90;;;;;;5103417;28;20018;-69
2023/04/15 09:01:16;;;;;;;;;;;10.00;90.90;;;;;;5104938;28;19911;-69
2023/04/15 09:03:42;;;;;;;;;;;10.00;90.90;;;;;;5106848;28;19912;-69
2023/04/15 09:06:08;;;;;;;;;;;10.00;90.80;;;;;;5107443;28;20093;-69
2023/04/15 09:08:34;;;;;;;;;;;10.10;90.80;;;;;;5107236;28;19918;-69
2023/04/15 09:11:03;;;;;;;;;;;10.10;90.80;;;;;;5107868;28;19965;-69
2023/04/15 09:13:29;;;;;;;;;;;10.10;90.90;;;;;;5107641;28;20613;-69
2023/04/15 09:15:55;;;;;;;;;;;10.10;90.90;;;;;;5106691;28;19911;-68
2023/04/15 09:18:31;;;;;;;;;;;10.10;90.90;;;;;;5107234;28;20019;-69
2023/04/15 09:21:04;;;;;;;;;;;10.10;91.00;;;;;;5103626;28;19990;-69
2023/04/15 09:23:30;;;;;;;;;;;10.10;91.00;;;;;;5101958;28;19988;-69
2023/04/15 09:25:56;;;;;;;;;;;10.10;91.10;;;;;;5100786;28;19916;-69
2023/04/15 09:28:27;;;;;;;;;;;10.20;91.00;;;;;;5107488;28;19943;-69
2023/04/15 09:33:56;;;;;;;;;;;10.20;91.10;;;;;;5105650;28;19934;-69
2023/04/15 09:36:21;;;;;;;;;;;10.20;91.10;;;;;;5107482;28;20415;-67
2023/04/15 09:38:53;;;;;;;;;;;10.20;91.10;;;;;;5107409;28;19908;-67
2023/04/15 09:41:19;;;;;;;;;;;10.20;91.10;;;;;;5104032;28;19919;-67
2023/04/15 09:43:44;;;;;;;;;;;10.20;91.40;;;;;;5090423;28;19912;-67
2023/04/15 09:46:10;;;;;;;;;;;10.20;91.20;;;;;;5090612;28;19964;-67
2023/04/15 09:48:35;;;;;;;;;;;10.20;91.20;;;;;;5090514;28;19919;-67
2023/04/15 09:51:01;;;;;;;;;;;10.30;91.20;;;;;;5090695;28;19912;-67
2023/04/15 09:53:27;;;;;;;;;;;10.30;91.30;;;;;;5090144;28;20006;-67
2023/04/15 09:55:53;;;;;;;;;;;10.30;91.20;;;;;;5090620;28;19940;-67
2023/04/15 09:58:23;;;;;;;;;;;10.30;91.30;;;;;;5091229;28;19916;-67
2023/04/15 10:00:50;;;;;;;;;;;10.40;91.30;;;;;;5110697;28;19995;-67
2023/04/15 10:03:20;;;;;;;;;;;10.40;91.30;;;;;;5109006;28;20010;-67
2023/04/15 10:05:47;;;;;;;;;;;10.40;91.30;;;;;;5110608;28;19912;-67
2023/04/15 10:08:13;;;;;;;;;;;10.40;91.40;;;;;;5110367;28;19916;-67
2023/04/15 10:10:39;;;;;;;;;;;10.40;91.40;;;;;;5110526;28;19916;-67
2023/04/15 10:13:05;;;;;;;;;;;10.40;91.30;;;;;;5110166;28;19912;-67
2023/04/15 10:15:31;;;;;;;;;;;10.40;91.40;;;;;;5110624;27;19926;-67
2023/04/15 10:17:58;;;;;;;;;;;10.50;91.30;;;;;;5106609;28;20535;-67
2023/04/15 10:20:24;;;;;;;;;;;10.50;91.30;;;;;;5109269;28;19963;-67
2023/04/15 10:22:50;;;;;;;;;;;10.50;91.30;;;;;;5109501;28;19939;-67
2023/04/15 10:25:15;;;;;;;;;;;10.60;91.30;;;;;;5109607;28;19912;-67
2023/04/15 10:27:41;;;;;;;;;;;10.70;91.30;;;;;;5109838;28;19915;-67
2023/04/15 10:30:07;;;;;;;;;;;10.70;91.20;;;;;;5109821;28;20357;-67
2023/04/15 10:32:33;;;;;;;;;;;10.70;91.20;;;;;;5109360;27;19919;-67
2023/04/15 10:35:00;;;;;;;;;;;10.80;91.20;;;;;;5106817;28;19912;-67
2023/04/15 10:37:36;;;;;;;;;;;10.80;91.20;;;;;;5108103;28;19916;-67
2023/04/15 10:40:21;;;;;;;;;;;10.90;91.20;;;;;;5106406;28;20023;-67
2023/04/15 10:42:47;;;;;;;;;;;10.90;91.10;;;;;;5105309;28;19994;-67
2023/04/15 10:45:16;;;;;;;;;;;10.90;91.40;;;;;;5108106;28;20003;-67
2023/04/15 10:47:42;;;;;;;;;;;10.90;91.10;;;;;;5106387;28;19923;-67
2023/04/15 10:50:08;;;;;;;;;;;10.90;91.20;;;;;;5107685;28;20534;-67
2023/04/15 10:52:33;;;;;;;;;;;10.90;91.20;;;;;;5106108;28;20066;-67
2023/04/15 10:55:02;;;;;;;;;;;10.90;91.30;;;;;;5107549;28;19912;-68
2023/04/15 10:57:33;;;;;;;;;;;10.80;91.30;;;;;;5107537;28;19916;-67
2023/04/15 11:00:00;;;;;;;;;;;10.80;91.40;;;;;;5107799;28;19981;-67
2023/04/15 11:02:45;;;;;;;;;;;10.80;91.40;;;;;;5107427;28;19916;-67
2023/04/15 11:05:11;;;;;;;;;;;10.70;91.50;;;;;;5105425;28;20518;-67
2023/04/15 11:07:43;;;;;;;;;;;10.70;91.60;;;;;;5103835;28;19908;-67
2023/04/15 11:10:12;;;;;;;;;;;10.70;91.60;;;;;;5104426;28;19915;-67
2023/04/15 11:12:37;;;;;;;;;;;10.70;91.70;;;;;;5107607;28;19962;-67
2023/04/15 11:15:22;;;;;;;;;;;10.70;91.70;;;;;;5099878;27;20006;-67
2023/04/15 11:17:48;;;;;;;;;;;10.60;91.70;;;;;;5097394;27;19915;-67
2023/04/15 11:20:14;;;;;;;;;;;10.60;91.70;;;;;;5105808;28;19926;-67
2023/04/15 11:22:46;;;;;;;;;;;10.60;91.80;;;;;;5102916;27;19916;-67
2023/04/15 11:25:21;;;;;;;;;;;10.60;91.80;;;;;;5106250;27;19920;-67
2023/04/15 11:27:46;;;;;;;;;;;10.60;91.80;;;;;;5107492;28;19912;-67
2023/04/15 11:30:20;;;;;;;;;;;10.60;91.80;;;;;;5106146;28;19923;-67
2023/04/15 11:32:46;;;;;;;;;;;10.60;91.90;;;;;;5107472;28;19919;-67
2023/04/15 11:35:11;;;;;;;;;;;10.50;91.90;;;;;;5109788;27;20495;-67
2023/04/15 11:37:37;;;;;;;;;;;10.50;91.90;;;;;;5106626;28;19912;-67
2023/04/15 11:40:02;;;;;;;;;;;10.50;91.90;;;;;;5106390;28;20272;-67
2023/04/15 11:42:28;;;;;;;;;;;10.50;91.90;;;;;;5106638;28;19919;-67
2023/04/15 11:45:10;;;;;;;;;;;10.50;92.00;;;;;;5107555;28;19912;-67
2023/04/15 11:47:36;;;;;;;;;;;10.50;92.00;;;;;;5105410;28;20666;-67
2023/04/15 11:50:13;;;;;;;;;;;10.50;92.00;;;;;;5107443;28;19995;-67
2023/04/15 11:52:39;;;;;;;;;;;10.50;92.10;;;;;;5107497;28;19965;-67
2023/04/15 11:55:07;;;;;;;;;;;10.50;92.00;;;;;;5107555;28;20307;-67
2023/04/15 11:57:33;;;;;;;;;;;10.50;92.00;;;;;;5107500;28;19923;-67
2023/04/15 11:59:59;;;;;;;;;;;10.50;92.00;;;;;;5107425;28;20002;-67
2023/04/15 12:02:31;;;;;;;;;;;10.50;92.00;;;;;;5105252;28;20350;-67
2023/04/15 12:05:04;;;;;;;;;;;10.50;92.10;;;;;;5106235;28;19961;-67
2023/04/15 12:07:29;;;;;;;;;;;10.50;92.10;;;;;;5107738;28;19911;-67
2023/04/15 12:09:56;;;;;;;;;;;10.50;92.10;;;;;;5106565;28;20288;-67
2023/04/15 12:12:25;;;;;;;;;;;10.40;92.10;;;;;;5106622;28;19920;-67
2023/04/15 12:14:51;;;;;;;;;;;10.50;92.10;;;;;;5106603;28;19954;-67
2023/04/15 12:17:17;;;;;;;;;;;10.40;92.10;;;;;;5104512;28;20023;-67
2023/04/15 12:19:44;;;;;;;;;;;10.40;92.10;;;;;;5106910;28;19969;-67
2023/04/15 12:22:14;;;;;;;;;;;10.40;92.20;;;;;;5107066;28;20002;-67
2023/04/15 12:24:41;;;;;;;;;;;10.40;92.10;;;;;;5106993;28;19923;-67
2023/04/15 12:27:07;;;;;;;;;;;10.40;92.10;;;;;;5106721;28;19938;-67
2023/04/15 12:29:34;;;;;;;;;;;10.40;92.20;;;;;;5106465;28;19922;-67
2023/04/15 12:32:07;;;;;;;;;;;10.40;92.20;;;;;;5105725;28;20508;-67
2023/04/15 12:34:33;;;;;;;;;;;10.40;92.20;;;;;;5107106;28;20402;-67
2023/04/15 12:36:59;;;;;;;;;;;10.40;92.20;;;;;;5107399;28;20376;-67
2023/04/15 12:39:27;;;;;;;;;;;10.40;92.20;;;;;;5087527;28;19912;-67
2023/04/15 12:41:53;;;;;;;;;;;10.40;92.20;;;;;;5103345;28;19915;-67
2023/04/15 12:44:19;;;;;;;;;;;10.40;92.30;;;;;;5106824;28;19916;-67
2023/04/15 12:46:45;;;;;;;;;;;10.40;92.30;;;;;;5107346;28;19919;-67
2023/04/15 12:49:10;;;;;;;;;;;10.40;92.30;;;;;;5107217;27;19912;-67
2023/04/15 12:51:36;;;;;;;;;;;10.40;92.30;;;;;;5107230;28;19915;-67
2023/04/15 12:54:01;;;;;;;;;;;10.40;92.30;;;;;;5106451;28;19912;-67
2023/04/15 12:56:27;;;;;;;;;;;10.40;92.30;;;;;;5105482;28;20253;-67
2023/04/15 12:58:52;;;;;;;;;;;10.40;92.30;;;;;;5101757;28;19908;-67
2023/04/15 13:01:18;;;;;;;;;;;10.40;92.30;;;;;;5085925;28;19920;-67
2023/04/15 13:03:43;;;;;;;;;;;10.40;92.30;;;;;;5086385;28;19912;-67
2023/04/15 13:06:09;;;;;;;;;;;10.40;92.60;;;;;;5086880;28;19912;-67
2023/04/15 13:08:34;;;;;;;;;;;10.40;92.40;;;;;;5086434;28;19912;-67
2023/04/15 13:11:00;;;;;;;;;;;10.40;92.40;;;;;;5089125;28;19912;-67
2023/04/15 13:13:26;;;;;;;;;;;10.40;92.50;;;;;;5089779;28;20017;-67
2023/04/15 13:15:51;;;;;;;;;;;10.40;92.40;;;;;;5089492;28;19936;-67
2023/04/15 13:18:17;;;;;;;;;;;10.40;92.40;;;;;;5103940;28;19919;-67
2023/04/15 13:20:42;;;;;;;;;;;10.40;92.60;;;;;;5110798;27;19920;-67
2023/04/15 13:23:08;;;;;;;;;;;10.40;92.60;;;;;;5108188;28;20471;-67
2023/04/15 13:25:34;;;;;;;;;;;10.40;92.40;;;;;;5109722;28;19919;-67
2023/04/15 13:28:00;;;;;;;;;;;10.40;92.40;;;;;;5110589;28;20408;-67
2023/04/15 13:30:26;;;;;;;;;;;10.40;92.40;;;;;;5111315;28;19916;-68
2023/04/15 13:32:52;;;;;;;;;;;10.40;92.30;;;;;;5111252;28;20368;-67
2023/04/15 13:35:18;;;;;;;;;;;10.40;92.40;;;;;;5111049;28;19912;-67
2023/04/15 13:37:44;;;;;;;;;;;10.40;92.50;;;;;;5110576;28;19920;-67
2023/04/15 13:40:10;;;;;;;;;;;10.40;92.40;;;;;;5110076;28;20002;-67
2023/04/15 13:42:35;;;;;;;;;;;10.40;92.50;;;;;;5109893;27;19969;-67
2023/04/15 13:45:00;;;;;;;;;;;10.40;92.50;;;;;;5108925;28;19923;-67
2023/04/15 13:47:26;;;;;;;;;;;10.40;92.50;;;;;;5102532;27;20057;-68
2023/04/15 13:49:53;;;;;;;;;;;10.40;92.70;;;;;;5105060;28;20323;-67
2023/04/15 13:52:18;;;;;;;;;;;10.40;92.50;;;;;;5110624;27;19908;-68
2023/04/15 13:54:44;;;;;;;;;;;10.40;92.60;;;;;;5110887;27;19922;-68
2023/04/15 13:57:09;;;;;;;;;;;10.40;92.50;;;;;;5109165;28;19926;-69
2023/04/15 13:59:35;;;;;;;;;;;10.40;92.50;;;;;;5107636;28;19912;-67
2023/04/15 14:02:01;;;;;;;;;;;10.40;92.50;;;;;;5108887;28;19920;-67
2023/04/15 14:04:26;;;;;;;;;;;10.40;92.50;;;;;;5109567;28;20265;-67
2023/04/15 14:06:52;;;;;;;;;;;10.40;92.50;;;;;;5109937;28;19920;-67
2023/04/15 14:09:17;;;;;;;;;;;10.40;92.60;;;;;;5091169;28;20093;-67
2023/04/15 14:11:43;;;;;;;;;;;10.40;92.60;;;;;;5098861;28;20363;-67
2023/04/15 14:14:08;;;;;;;;;;;10.40;92.70;;;;;;5109143;28;19916;-67
2023/04/15 14:16:34;;;;;;;;;;;10.40;92.70;;;;;;5109295;28;20026;-67
2023/04/15 14:19:00;;;;;;;;;;;10.40;92.80;;;;;;5105443;27;20273;-67
2023/04/15 14:21:27;;;;;;;;;;;10.40;92.70;;;;;;5109312;28;20292;-67
2023/04/15 14:23:52;;;;;;;;;;;10.40;92.80;;;;;;5108249;27;20044;-67